Time;durP1;ratioP1;P1;durP2;ratioP2;P2;SDS_P1;SDS_P2;PMS_P1;PMS_P2;Temp;Humidity;BMP_temperature;BMP_pressure;BME280_temperature;BME280_humidity;BME280_pressure;Samples;Min_cycle;Max_cycle;Signal;HPM_P1;HPM_P2
2022/03/12 00:01:44;;;;;;;23.23;9.70;;;4.60;50.50;;;;;;4991907;28;20062;-63
2022/03/12 00:04:10;;;;;;;23.75;10.65;;;4.60;50.40;;;;;;4989204;28;20026;-66
2022/03/12 00:06:36;;;;;;;18.55;9.68;;;4.50;50.50;;;;;;4990825;28;20038;-66
2022/03/12 00:09:03;;;;;;;21.50;8.82;;;4.50;50.60;;;;;;4991675;28;20057;-64
2022/03/12 00:11:35;;;;;;;22.02;10.23;;;4.50;50.80;;;;;;4989761;28;20026;-63
2022/03/12 00:14:03;;;;;;;23.33;10.57;;;4.50;51.10;;;;;;4990164;28;20065;-62
2022/03/12 00:16:29;;;;;;;24.50;10.93;;;4.40;51.20;;;;;;4976706;28;20026;-65
2022/03/12 00:18:58;;;;;;;24.77;10.32;;;4.40;51.30;;;;;;4990064;28;20052;-61
2022/03/12 00:21:24;;;;;;;20.83;10.00;;;4.40;51.70;;;;;;4990310;28;20033;-64
2022/03/12 00:23:51;;;;;;;22.27;10.52;;;4.40;51.60;;;;;;4974410;28;20026;-63
2022/03/12 00:26:18;;;;;;;22.27;10.52;;;4.30;51.90;;;;;;4989632;28;20026;-64
2022/03/12 00:28:45;;;;;;;24.45;9.98;;;4.30;51.90;;;;;;4991238;28;20026;-63
2022/03/12 00:31:12;;;;;;;23.02;9.68;;;4.30;51.90;;;;;;4974956;28;20041;-63
2022/03/12 00:33:38;;;;;;;24.95;10.70;;;4.30;52.00;;;;;;4991007;28;20541;-61
2022/03/12 00:36:04;;;;;;;21.48;10.20;;;4.20;51.90;;;;;;4991398;28;20105;-64
2022/03/12 00:38:30;;;;;;;21.85;10.02;;;4.20;51.90;;;;;;4990534;28;20022;-64
2022/03/12 00:40:57;;;;;;;21.90;9.93;;;4.20;52.20;;;;;;4991247;28;20109;-63
2022/03/12 00:43:23;;;;;;;24.15;10.95;;;4.10;52.10;;;;;;4989291;28;20026;-63
2022/03/12 00:45:49;;;;;;;20.20;9.70;;;4.10;52.10;;;;;;4991899;28;20038;-63
2022/03/12 00:48:16;;;;;;;24.20;10.38;;;4.10;52.40;;;;;;4990726;28;20211;-64
2022/03/12 00:50:42;;;;;;;27.08;11.18;;;4.00;52.50;;;;;;4992578;28;20089;-64
2022/03/12 00:53:08;;;;;;;26.50;10.70;;;4.10;52.90;;;;;;4973225;28;20086;-64
2022/03/12 00:55:34;;;;;;;22.90;10.48;;;4.10;52.90;;;;;;4992138;28;20022;-65
2022/03/12 00:58:00;;;;;;;18.80;9.57;;;4.10;53.20;;;;;;4991711;28;20093;-63
2022/03/12 01:00:26;;;;;;;21.55;10.13;;;4.00;52.60;;;;;;4989399;28;20030;-64
2022/03/12 01:02:53;;;;;;;19.73;9.95;;;4.00;52.20;;;;;;4991180;28;20112;-63
2022/03/12 01:05:22;;;;;;;22.50;10.07;;;4.00;52.20;;;;;;4989511;28;20038;-63
2022/03/12 01:07:48;;;;;;;23.52;11.20;;;4.00;52.40;;;;;;4989910;28;20041;-63
2022/03/12 01:10:15;;;;;;;24.50;10.77;;;4.00;52.40;;;;;;4990351;28;20046;-63
2022/03/12 01:12:43;;;;;;;19.95;10.15;;;4.00;52.50;;;;;;4989390;28;20023;-61
2022/03/12 01:15:10;;;;;;;25.35;9.90;;;4.00;52.50;;;;;;4988995;28;20038;-61
2022/03/12 01:17:38;;;;;;;23.77;10.35;;;3.90;52.40;;;;;;4991048;28;20081;-64
2022/03/12 01:20:06;;;;;;;25.88;10.45;;;3.90;52.60;;;;;;4990212;28;20038;-64
2022/03/12 01:22:35;;;;;;;23.63;10.15;;;3.90;52.60;;;;;;4989759;28;20031;-64
2022/03/12 01:25:06;;;;;;;36.85;10.80;;;3.80;52.70;;;;;;4988719;28;20397;-63
2022/03/12 01:27:32;;;;;;;26.65;11.35;;;3.90;52.90;;;;;;4973647;28;20027;-63
2022/03/12 01:29:58;;;;;;;27.73;10.57;;;3.90;52.70;;;;;;4990460;28;20030;-64
2022/03/12 01:32:23;;;;;;;25.60;10.18;;;3.80;52.60;;;;;;4988835;28;20165;-65
2022/03/12 01:34:49;;;;;;;24.73;10.32;;;3.80;52.50;;;;;;4990449;28;20092;-67
2022/03/12 01:37:19;;;;;;;29.25;11.07;;;3.80;52.50;;;;;;4992588;28;20502;-66
2022/03/12 01:39:46;;;;;;;17.67;9.45;;;3.80;52.90;;;;;;4994087;28;20030;-66
2022/03/12 01:42:14;;;;;;;24.83;10.98;;;3.70;53.30;;;;;;4994099;28;20030;-67
2022/03/12 01:44:40;;;;;;;22.50;10.75;;;3.70;53.60;;;;;;4994746;28;20061;-65
2022/03/12 01:47:08;;;;;;;25.88;9.90;;;3.70;53.90;;;;;;4991403;28;20033;-65
2022/03/12 01:49:34;;;;;;;34.30;10.35;;;3.70;53.50;;;;;;5009573;28;20049;-66
2022/03/12 01:52:00;;;;;;;24.30;11.52;;;3.60;54.00;;;;;;4958640;28;20134;-66
2022/03/12 01:54:28;;;;;;;23.05;9.95;;;3.60;54.30;;;;;;4992862;28;20141;-64
2022/03/12 01:56:56;;;;;;;22.95;10.43;;;3.60;54.30;;;;;;4994178;28;20033;-64
2022/03/12 01:59:22;;;;;;;21.80;10.52;;;3.50;54.40;;;;;;4993537;28;20121;-62
2022/03/12 02:01:51;;;;;;;24.70;10.75;;;3.50;54.50;;;;;;4994914;28;20436;-62
2022/03/12 02:04:22;;;;;;;23.52;10.70;;;3.50;54.40;;;;;;4990486;28;20065;-64
2022/03/12 02:06:50;;;;;;;22.88;10.65;;;3.40;54.40;;;;;;4993894;28;20033;-65
2022/03/12 02:09:17;;;;;;;30.50;11.38;;;3.50;54.30;;;;;;4992542;28;20081;-64
2022/03/12 02:11:50;;;;;;;24.65;9.77;;;3.40;53.90;;;;;;4993508;28;20026;-62
2022/03/12 02:14:18;;;;;;;21.92;10.52;;;3.40;53.60;;;;;;4994430;28;20033;-61
2022/03/12 02:16:52;;;;;;;21.13;9.80;;;3.40;53.70;;;;;;4994170;28;20125;-65
2022/03/12 02:19:19;;;;;;;21.15;9.52;;;3.30;53.50;;;;;;4977036;28;20113;-65
2022/03/12 02:21:56;;;;;;;26.48;9.48;;;3.30;53.20;;;;;;4994664;28;20433;-65
2022/03/12 02:24:24;;;;;;;26.38;9.93;;;3.30;53.40;;;;;;4992584;28;20455;-63
2022/03/12 02:26:51;;;;;;;22.08;10.50;;;3.20;53.20;;;;;;4993753;28;20380;-63
2022/03/12 02:29:20;;;;;;;27.10;10.15;;;3.20;53.50;;;;;;4993534;28;20030;-62
2022/03/12 02:31:50;;;;;;;24.00;10.82;;;3.20;53.60;;;;;;4993026;28;20034;-63
2022/03/12 02:34:21;;;;;;;21.98;10.43;;;3.20;53.80;;;;;;4993621;28;20062;-64
2022/03/12 02:36:49;;;;;;;24.35;9.85;;;3.10;54.10;;;;;;4993975;28;20030;-63
2022/03/12 02:39:16;;;;;;;23.05;10.35;;;3.10;54.30;;;;;;4993293;28;20076;-64
2022/03/12 02:41:42;;;;;;;24.38;9.98;;;3.10;54.40;;;;;;4994222;28;20019;-63
2022/03/12 02:44:12;;;;;;;22.83;9.40;;;3.10;54.30;;;;;;4991994;28;20030;-66
2022/03/12 02:46:40;;;;;;;23.55;10.23;;;3.00;53.90;;;;;;4992020;28;20022;-65
2022/03/12 02:49:06;;;;;;;24.13;10.23;;;3.00;54.30;;;;;;4991287;28;20022;-65
2022/03/12 02:51:34;;;;;;;22.65;9.32;;;3.00;54.50;;;;;;4993912;28;20365;-66
2022/03/12 02:54:00;;;;;;;28.88;9.88;;;3.00;54.60;;;;;;4993023;28;20444;-61
2022/03/12 02:56:34;;;;;;;24.10;10.68;;;3.00;54.40;;;;;;4992882;28;20026;-65
2022/03/12 02:59:00;;;;;;;23.30;10.27;;;2.90;54.30;;;;;;4992109;28;20084;-64
2022/03/12 03:01:28;;;;;;;25.27;9.88;;;2.90;54.10;;;;;;4992261;28;20483;-64
2022/03/12 03:03:54;;;;;;;22.65;11.10;;;2.90;54.30;;;;;;4991668;28;20094;-64
2022/03/12 03:06:20;;;;;;;23.40;9.60;;;2.90;54.60;;;;;;4991355;28;20026;-64
2022/03/12 03:08:46;;;;;;;26.63;11.13;;;2.80;54.70;;;;;;4992441;28;20040;-65
2022/03/12 03:11:16;;;;;;;24.77;9.98;;;2.90;54.70;;;;;;4992131;28;20045;-67
2022/03/12 03:13:44;;;;;;;20.92;9.98;;;2.80;54.40;;;;;;4976215;28;20069;-64
2022/03/12 03:16:09;;;;;;;24.40;10.48;;;2.80;54.30;;;;;;4991674;28;20448;-65
2022/03/12 03:18:40;;;;;;;23.83;10.68;;;2.80;54.30;;;;;;4992535;28;20030;-64
2022/03/12 03:21:12;;;;;;;24.65;10.05;;;2.80;54.30;;;;;;4999625;28;20026;-63
2022/03/12 03:23:38;;;;;;;24.17;9.63;;;2.80;54.40;;;;;;4993222;28;20027;-65
2022/03/12 03:26:04;;;;;;;22.63;10.35;;;2.70;54.10;;;;;;4990292;28;20042;-64
2022/03/12 03:28:30;;;;;;;22.27;9.60;;;2.70;54.10;;;;;;4991740;28;20399;-66
2022/03/12 03:30:56;;;;;;;22.88;10.27;;;2.70;54.20;;;;;;4993161;28;20022;-65
2022/03/12 03:33:23;;;;;;;22.20;8.82;;;2.70;54.40;;;;;;4992424;28;20121;-63
2022/03/12 03:35:49;;;;;;;21.35;8.88;;;2.70;54.10;;;;;;4992477;28;20053;-65
2022/03/12 03:38:15;;;;;;;21.75;10.18;;;2.70;54.40;;;;;;4990540;28;20053;-66
2022/03/12 03:40:42;;;;;;;22.33;9.75;;;2.70;54.20;;;;;;4989011;28;20042;-67
2022/03/12 03:43:15;;;;;;;23.42;9.48;;;2.60;54.30;;;;;;4973524;28;20539;-65
2022/03/12 03:45:41;;;;;;;;;;;2.60;54.40;;;;;;4991739;28;20496;-65
2022/03/12 03:48:12;;;;;;;19.55;9.93;;;2.60;54.50;;;;;;4992947;28;20252;-65
2022/03/12 03:50:39;;;;;;;25.00;9.77;;;2.60;54.40;;;;;;4991526;28;20026;-63
2022/03/12 03:53:05;;;;;;;23.75;10.05;;;2.60;54.70;;;;;;4991653;28;20085;-65
2022/03/12 03:55:32;;;;;;;22.75;9.43;;;2.50;54.60;;;;;;4992179;28;20026;-65
2022/03/12 03:58:05;;;;;;;21.27;9.13;;;2.50;54.90;;;;;;4992115;28;20119;-65
2022/03/12 04:00:31;;;;;;;21.60;9.18;;;2.50;54.60;;;;;;4991714;28;20027;-63
2022/03/12 04:03:04;;;;;;;23.33;10.30;;;2.40;54.40;;;;;;4991818;28;20070;-64
2022/03/12 04:05:35;;;;;;;20.48;9.32;;;2.40;54.40;;;;;;4995617;28;20030;-68
2022/03/12 04:08:02;;;;;;;25.17;9.70;;;2.40;54.80;;;;;;4982127;28;20038;-69
2022/03/12 04:10:28;;;;;;;28.30;9.60;;;2.40;54.90;;;;;;4982243;28;20388;-68
2022/03/12 04:12:56;;;;;;;24.23;8.98;;;2.40;55.10;;;;;;4996615;28;20038;-65
2022/03/12 04:15:21;;;;;;;25.90;10.68;;;2.30;54.90;;;;;;4992974;28;20507;-64
2022/03/12 04:17:51;;;;;;;21.55;9.73;;;2.30;55.00;;;;;;4993043;28;20039;-63
2022/03/12 04:20:18;;;;;;;21.05;9.77;;;2.30;55.10;;;;;;5000995;28;20030;-65
2022/03/12 04:22:50;;;;;;;21.13;8.93;;;2.30;55.20;;;;;;4995655;28;20030;-64
2022/03/12 04:25:17;;;;;;;19.90;9.35;;;2.30;55.00;;;;;;4992230;28;20093;-63
2022/03/12 04:27:44;;;;;;;22.65;9.35;;;2.20;54.90;;;;;;4991423;28;20027;-64
2022/03/12 04:30:15;;;;;;;26.65;9.95;;;2.20;54.80;;;;;;4990928;28;20027;-64
2022/03/12 04:32:42;;;;;;;20.33;9.30;;;2.20;55.00;;;;;;4990636;28;20427;-65
2022/03/12 04:35:09;;;;;;;20.27;9.55;;;2.10;55.30;;;;;;4991219;28;20018;-65
2022/03/12 04:37:35;;;;;;;25.25;9.90;;;2.20;55.10;;;;;;4990790;28;20038;-65
2022/03/12 04:40:07;;;;;;;19.80;9.82;;;2.10;55.30;;;;;;4990762;28;20041;-64
2022/03/12 04:42:34;;;;;;;18.73;9.23;;;2.10;55.30;;;;;;4990304;28;20104;-66
2022/03/12 04:44:59;;;;;;;24.58;9.25;;;2.10;55.20;;;;;;4990450;28;20046;-65
2022/03/12 04:47:25;;;;;;;23.02;9.48;;;2.10;55.20;;;;;;4989759;28;20069;-66
2022/03/12 04:49:51;;;;;;;22.02;9.48;;;2.00;55.30;;;;;;4990981;28;20551;-64
2022/03/12 04:52:18;;;;;;;23.13;9.20;;;2.10;55.60;;;;;;4991490;28;20488;-66
2022/03/12 04:54:44;;;;;;;25.27;9.80;;;2.00;55.80;;;;;;4991177;28;20037;-65
2022/03/12 04:57:10;;;;;;;27.35;9.75;;;2.00;56.10;;;;;;4990552;28;20030;-61
2022/03/12 04:59:35;;;;;;;17.75;8.95;;;2.00;55.90;;;;;;4989322;28;20400;-62
2022/03/12 05:02:03;;;;;;;20.92;9.68;;;2.00;55.60;;;;;;4991731;28;20160;-63
2022/03/12 05:04:29;;;;;;;20.23;9.45;;;2.00;55.20;;;;;;4990458;28;20436;-65
2022/03/12 05:06:56;;;;;;;23.23;9.52;;;2.00;55.00;;;;;;4989425;28;20070;-67
2022/03/12 05:09:22;;;;;;;25.98;10.20;;;2.00;55.10;;;;;;4990431;28;20108;-64
2022/03/12 05:11:49;;;;;;;22.92;9.07;;;2.00;54.80;;;;;;4994397;28;20081;-66
2022/03/12 05:14:16;;;;;;;18.40;9.10;;;2.00;55.20;;;;;;4995690;28;20072;-64
2022/03/12 05:16:44;;;;;;;21.92;9.45;;;1.90;55.20;;;;;;4997195;28;20417;-64
2022/03/12 05:19:09;;;;;;;20.75;8.57;;;1.90;55.10;;;;;;4980282;28;20066;-65
2022/03/12 05:21:35;;;;;;;21.38;9.65;;;1.90;55.20;;;;;;4996312;28;20069;-66
2022/03/12 05:24:01;;;;;;;16.77;8.63;;;1.90;55.30;;;;;;4996879;28;20027;-65
2022/03/12 05:26:26;;;;;;;22.10;9.02;;;1.90;55.20;;;;;;4996872;28;20396;-65
2022/03/12 05:28:52;;;;;;;24.13;10.18;;;1.80;55.10;;;;;;4996873;28;20191;-64
2022/03/12 05:31:18;;;;;;;23.15;9.48;;;1.90;56.00;;;;;;4995990;28;20030;-64
2022/03/12 05:33:44;;;;;;;21.30;9.18;;;1.80;55.10;;;;;;5004948;28;20022;-63
2022/03/12 05:36:10;;;;;;;20.75;8.82;;;1.80;55.30;;;;;;5006919;28;20025;-63
2022/03/12 05:38:36;;;;;;;21.83;9.88;;;1.80;55.20;;;;;;5002705;28;20034;-63
2022/03/12 05:41:06;;;;;;;21.70;9.32;;;1.80;55.60;;;;;;4995070;28;20034;-64
2022/03/12 05:43:35;;;;;;;18.52;8.68;;;1.90;55.80;;;;;;4997087;28;20061;-62
2022/03/12 05:46:01;;;;;;;17.85;9.35;;;1.80;55.30;;;;;;4996192;28;20043;-63
2022/03/12 05:48:27;;;;;;;17.10;8.45;;;1.80;55.80;;;;;;5007103;28;20038;-63
2022/03/12 05:50:53;;;;;;;23.25;9.40;;;1.80;55.70;;;;;;5004608;28;20044;-63
2022/03/12 05:53:19;;;;;;;20.35;8.65;;;1.80;55.30;;;;;;4997698;28;20077;-63
2022/03/12 05:55:47;;;;;;;18.95;8.45;;;1.80;55.20;;;;;;4994922;28;20399;-63
2022/03/12 05:58:15;;;;;;;22.38;9.48;;;1.90;55.10;;;;;;4997992;28;20030;-63
2022/03/12 06:00:41;;;;;;;20.98;9.48;;;1.80;55.20;;;;;;4997662;28;20042;-65
2022/03/12 06:03:10;;;;;;;20.95;9.77;;;1.80;55.50;;;;;;4997551;28;20506;-65
2022/03/12 06:05:40;;;;;;;22.15;10.00;;;1.80;56.30;;;;;;4995055;28;20531;-66
2022/03/12 06:08:07;;;;;;;24.15;9.27;;;1.80;56.30;;;;;;4994695;28;20167;-65
2022/03/12 06:10:34;;;;;;;18.77;9.20;;;1.80;56.40;;;;;;4994497;22;20074;-64
2022/03/12 06:13:01;;;;;;;22.40;8.73;;;1.80;56.40;;;;;;4976027;28;20085;-60
2022/03/12 06:15:27;;;;;;;21.52;9.23;;;1.70;56.10;;;;;;4971859;28;20117;-61
2022/03/12 06:17:54;;;;;;;29.88;9.32;;;1.70;56.30;;;;;;4974943;28;20041;-61
2022/03/12 06:20:21;;;;;;;24.60;9.20;;;1.80;56.30;;;;;;4975068;28;20165;-60
2022/03/12 06:22:49;;;;;;;22.50;9.48;;;1.80;56.30;;;;;;4974308;28;20031;-60
2022/03/12 06:25:17;;;;;;;23.40;9.82;;;1.80;56.40;;;;;;4973131;28;20061;-60
2022/03/12 06:27:47;;;;;;;18.60;8.40;;;1.90;56.30;;;;;;4973077;28;20117;-64
2022/03/12 06:30:16;;;;;;;25.25;9.75;;;1.90;55.90;;;;;;4973674;28;20027;-60
2022/03/12 06:32:43;;;;;;;22.38;9.60;;;1.90;55.60;;;;;;4973281;28;20078;-58
2022/03/12 06:35:10;;;;;;;18.58;8.65;;;1.90;55.40;;;;;;4973645;28;20038;-60
2022/03/12 06:37:36;;;;;;;22.85;9.23;;;1.90;55.20;;;;;;4972153;28;20433;-62
2022/03/12 06:40:03;;;;;;;24.80;8.52;;;2.00;54.40;;;;;;4973617;28;20027;-60
2022/03/12 06:42:34;;;;;;;16.45;7.75;;;2.00;54.00;;;;;;4964349;28;20038;-60
2022/03/12 06:45:00;;;;;;;18.27;8.73;;;2.00;53.80;;;;;;4972863;28;20353;-59
2022/03/12 06:47:29;;;;;;;18.88;7.70;;;2.00;53.80;;;;;;4972894;28;20038;-58
2022/03/12 06:49:56;;;;;;;17.88;8.48;;;2.10;53.30;;;;;;4973475;28;20023;-59
2022/03/12 06:52:23;;;;;;;18.73;8.65;;;2.10;53.30;;;;;;4970864;28;20035;-59
2022/03/12 06:54:49;;;;;;;15.80;7.85;;;2.10;53.30;;;;;;4985518;28;20086;-61
2022/03/12 06:57:15;;;;;;;24.40;9.10;;;2.20;53.30;;;;;;4973250;28;20480;-60
2022/03/12 06:59:40;;;;;;;16.50;8.65;;;2.20;53.20;;;;;;4972268;28;20054;-63
2022/03/12 07:02:06;;;;;;;17.08;9.02;;;2.30;53.40;;;;;;4973780;28;20057;-61
2022/03/12 07:04:31;;;;;;;23.27;8.18;;;2.30;53.10;;;;;;4972691;28;20118;-60
2022/03/12 07:06:57;;;;;;;19.73;8.73;;;2.50;53.00;;;;;;4973249;28;20090;-60
2022/03/12 07:09:23;;;;;;;17.23;7.90;;;2.50;52.50;;;;;;4972293;28;20053;-61
2022/03/12 07:11:50;;;;;;;19.30;8.30;;;2.50;52.20;;;;;;4973532;28;20045;-58
2022/03/12 07:14:16;;;;;;;20.10;8.30;;;2.60;52.20;;;;;;4972687;28;20117;-61
2022/03/12 07:16:41;;;;;;;25.42;8.07;;;2.60;51.90;;;;;;4971508;28;20493;-61
2022/03/12 07:19:07;;;;;;;19.58;9.27;;;2.70;52.60;;;;;;4973436;28;20069;-62
2022/03/12 07:21:33;;;;;;;17.13;8.27;;;2.80;51.90;;;;;;4972562;28;20034;-58
2022/03/12 07:23:58;;;;;;;17.30;7.25;;;2.80;51.40;;;;;;4972079;28;20122;-60
2022/03/12 07:26:24;;;;;;;18.42;8.32;;;2.90;51.90;;;;;;4972102;28;20023;-60
2022/03/12 07:28:49;;;;;;;15.45;8.20;;;3.00;51.30;;;;;;4972774;28;20038;-59
2022/03/12 07:31:16;;;;;;;18.70;8.05;;;3.00;51.10;;;;;;4972703;28;20085;-59
2022/03/12 07:33:42;;;;;;;16.52;8.30;;;3.10;51.30;;;;;;4972084;28;20022;-58
2022/03/12 07:36:09;;;;;;;18.58;8.93;;;3.20;50.50;;;;;;4953266;28;20028;-57
2022/03/12 07:38:34;;;;;;;21.13;8.18;;;3.30;50.30;;;;;;4968930;28;20480;-55
2022/03/12 07:41:00;;;;;;;16.60;8.10;;;3.30;50.10;;;;;;4958222;28;20493;-56
2022/03/12 07:43:26;;;;;;;26.65;9.05;;;3.40;50.20;;;;;;4980225;28;20030;-55
2022/03/12 07:45:52;;;;;;;18.83;8.82;;;3.50;50.20;;;;;;4991675;28;20027;-53
2022/03/12 07:48:18;;;;;;;16.38;7.85;;;3.70;50.00;;;;;;4976557;28;20041;-49
2022/03/12 07:50:44;;;;;;;13.60;7.68;;;3.90;50.80;;;;;;4972585;28;20030;-50
2022/03/12 07:53:13;;;;;;;16.58;7.72;;;4.00;50.20;;;;;;4973128;28;20031;-49
2022/03/12 07:55:40;;;;;;;15.85;7.47;;;4.10;49.60;;;;;;4971359;28;20027;-46
2022/03/12 07:58:07;;;;;;;18.40;7.82;;;4.30;49.80;;;;;;4987181;28;20023;-50
2022/03/12 08:00:32;;;;;;;18.30;7.25;;;4.40;49.40;;;;;;4971670;28;20037;-51
2022/03/12 08:02:59;;;;;;;17.33;7.25;;;4.40;48.60;;;;;;4972889;28;20034;-50
2022/03/12 08:05:25;;;;;;;20.10;8.25;;;4.50;48.50;;;;;;4970944;28;20114;-49
2022/03/12 08:07:54;;;;;;;13.30;7.18;;;4.70;48.00;;;;;;4972515;28;20507;-56
2022/03/12 08:10:21;;;;;;;17.67;7.35;;;4.60;47.40;;;;;;4971126;28;20065;-50
2022/03/12 08:12:47;;;;;;;15.95;7.72;;;4.70;47.10;;;;;;4971930;28;20034;-54
2022/03/12 08:15:14;;;;;;;19.73;8.48;;;4.80;47.00;;;;;;4970774;28;20500;-51
2022/03/12 08:17:40;;;;;;;21.13;7.90;;;4.80;46.60;;;;;;4971768;28;20106;-52
2022/03/12 08:20:07;;;;;;;17.50;7.65;;;5.00;47.50;;;;;;4971281;28;20059;-53
2022/03/12 08:22:32;;;;;;;19.42;9.00;;;5.10;47.10;;;;;;4971682;28;20039;-51
2022/03/12 08:24:58;;;;;;;21.95;7.68;;;5.00;46.90;;;;;;4970253;28;20084;-52
2022/03/12 08:27:24;;;;;;;15.18;7.60;;;5.00;46.90;;;;;;4971101;28;20046;-60
2022/03/12 08:29:50;;;;;;;17.58;8.05;;;4.80;45.70;;;;;;4969773;28;20062;-61
2022/03/12 08:32:16;;;;;;;19.52;7.55;;;4.80;45.80;;;;;;4971800;28;20031;-59
2022/03/12 08:34:41;;;;;;;18.05;7.68;;;4.80;46.10;;;;;;4973524;28;20030;-61
2022/03/12 08:37:08;;;;;;;17.30;7.25;;;4.80;46.10;;;;;;4972498;28;20038;-59
2022/03/12 08:39:34;;;;;;;15.85;7.57;;;4.80;46.20;;;;;;4971424;28;20027;-55
2022/03/12 08:42:00;;;;;;;21.23;7.32;;;4.80;45.70;;;;;;4972002;28;20484;-58
2022/03/12 08:44:26;;;;;;;15.18;6.88;;;4.80;45.80;;;;;;4971495;28;20112;-55
2022/03/12 08:46:52;;;;;;;13.75;7.13;;;4.70;46.10;;;;;;4971026;28;20038;-57
2022/03/12 08:49:18;;;;;;;15.38;7.35;;;4.70;45.60;;;;;;4971909;28;20035;-59
2022/03/12 08:51:44;;;;;;;15.07;7.38;;;4.70;46.00;;;;;;4972519;28;20038;-59
2022/03/12 08:54:09;;;;;;;14.55;7.22;;;4.70;45.80;;;;;;4974504;28;20026;-59
2022/03/12 08:56:36;;;;;;;18.33;7.95;;;4.70;45.70;;;;;;4973760;28;20027;-59
2022/03/12 08:59:05;;;;;;;16.00;7.25;;;4.70;45.70;;;;;;4974951;28;20094;-60
2022/03/12 09:01:32;;;;;;;12.77;6.50;;;4.80;45.40;;;;;;4974300;28;20031;-61
2022/03/12 09:03:58;;;;;;;15.70;7.15;;;4.80;45.30;;;;;;4974064;28;20066;-59
2022/03/12 09:06:27;;;;;;;17.92;7.32;;;4.80;45.10;;;;;;4973731;28;20030;-59
2022/03/12 09:08:53;;;;;;;13.93;6.70;;;4.90;45.60;;;;;;4972182;28;20034;-59
2022/03/12 09:11:19;;;;;;;15.15;6.45;;;5.00;45.50;;;;;;4985888;28;20361;-59
2022/03/12 09:13:46;;;;;;;13.43;7.43;;;5.10;45.30;;;;;;4971384;28;20027;-60
2022/03/12 09:16:14;;;;;;;20.90;7.35;;;5.20;45.60;;;;;;4971066;28;20028;-56
2022/03/12 09:18:44;;;;;;;19.00;7.15;;;5.30;44.60;;;;;;4971250;28;20035;-58
2022/03/12 09:21:10;;;;;;;11.98;6.40;;;5.50;44.30;;;;;;4971334;28;20581;-56
2022/03/12 09:23:35;;;;;;;12.85;6.47;;;5.60;44.00;;;;;;4971454;28;20476;-54
2022/03/12 09:26:01;;;;;;;15.02;6.65;;;5.90;44.00;;;;;;4985571;28;20084;-55
2022/03/12 09:28:27;;;;;;;15.32;6.38;;;6.10;43.60;;;;;;4971095;28;20039;-56
2022/03/12 09:30:53;;;;;;;14.70;7.07;;;6.20;43.60;;;;;;4971509;28;20115;-55
2022/03/12 09:33:21;;;;;;;14.70;6.85;;;6.20;43.60;;;;;;4971166;28;20041;-56
2022/03/12 09:35:47;;;;;;;11.98;6.75;;;6.20;43.60;;;;;;4971351;28;20113;-55
2022/03/12 09:38:15;;;;;;;13.25;7.22;;;6.40;43.80;;;;;;4971524;28;20341;-55
2022/03/12 09:40:42;;;;;;;15.93;6.68;;;6.50;43.60;;;;;;4970862;28;20397;-57
2022/03/12 09:43:09;;;;;;;20.55;7.00;;;6.70;42.80;;;;;;4971003;28;20034;-57
2022/03/12 09:45:35;;;;;;;15.93;7.20;;;6.70;42.00;;;;;;4970492;28;20030;-57
2022/03/12 09:48:01;;;;;;;12.63;6.55;;;6.70;42.20;;;;;;4971289;28;20173;-57
2022/03/12 09:50:27;;;;;;;13.13;6.90;;;6.80;42.70;;;;;;4970782;28;20027;-58
2022/03/12 09:52:53;;;;;;;13.40;7.18;;;6.80;42.90;;;;;;4971249;28;20042;-58
2022/03/12 09:55:19;;;;;;;12.82;7.20;;;7.00;42.30;;;;;;4970466;28;20030;-59
2022/03/12 09:57:47;;;;;;;14.80;7.18;;;6.80;41.90;;;;;;4971209;28;20031;-59
2022/03/12 10:00:13;;;;;;;12.98;6.88;;;7.00;42.00;;;;;;4974732;28;20041;-56
2022/03/12 10:02:39;;;;;;;13.27;6.93;;;7.00;42.20;;;;;;4974601;28;20039;-58
2022/03/12 10:05:06;;;;;;;13.98;6.70;;;7.10;42.20;;;;;;4974026;28;20034;-59
2022/03/12 10:07:31;;;;;;;15.55;6.93;;;7.20;42.00;;;;;;4974189;28;20033;-58
2022/03/12 10:09:57;;;;;;;11.70;5.82;;;7.20;41.60;;;;;;4974127;28;20043;-59
2022/03/12 10:12:23;;;;;;;15.27;6.72;;;7.20;41.10;;;;;;4974201;28;20476;-57
2022/03/12 10:14:49;;;;;;;17.15;7.15;;;7.40;41.30;;;;;;4974342;28;20468;-60
2022/03/12 10:17:17;;;;;;;14.35;6.57;;;7.70;41.30;;;;;;4974308;28;20035;-58
2022/03/12 10:19:45;;;;;;;11.52;7.05;;;7.90;40.50;;;;;;4989201;28;20031;-58
2022/03/12 10:22:11;;;;;;;11.77;6.47;;;8.00;40.50;;;;;;4974721;28;20037;-57
2022/03/12 10:24:37;;;;;;;13.85;6.75;;;8.10;40.10;;;;;;4973822;28;20039;-58
2022/03/12 10:27:06;;;;;;;17.30;7.43;;;8.20;40.10;;;;;;4988434;28;20093;-57
2022/03/12 10:29:31;;;;;;;17.75;7.18;;;8.50;39.60;;;;;;4973588;28;20167;-57
2022/03/12 10:31:57;;;;;;;16.52;7.47;;;8.60;39.80;;;;;;4974171;28;20058;-57
2022/03/12 10:34:25;;;;;;;13.73;6.72;;;8.70;39.70;;;;;;4973820;28;20031;-57
2022/03/12 10:36:54;;;;;;;12.48;6.30;;;8.90;39.40;;;;;;4973506;28;20038;-55
2022/03/12 10:39:33;;;;;;;15.75;7.45;;;8.50;39.10;;;;;;4973872;28;20026;-56
2022/03/12 10:42:08;;;;;;;13.52;6.80;;;8.80;40.30;;;;;;4973143;28;20031;-57
2022/03/12 10:44:35;;;;;;;14.88;7.35;;;9.10;40.10;;;;;;4973961;28;20213;-56
2022/03/12 10:47:01;;;;;;;13.30;6.88;;;8.90;39.80;;;;;;4973225;28;20035;-55
2022/03/12 10:49:27;;;;;;;15.55;6.82;;;8.90;39.70;;;;;;4973005;28;20031;-58
2022/03/12 10:51:57;;;;;;;20.40;6.85;;;9.10;39.50;;;;;;4972654;28;20404;-56
2022/03/12 10:54:23;;;;;;;12.15;6.68;;;9.30;39.10;;;;;;4973492;28;20159;-58
2022/03/12 10:56:51;;;;;;;15.75;7.10;;;9.50;39.20;;;;;;4972696;28;20453;-56
2022/03/12 10:59:19;;;;;;;16.63;7.18;;;9.50;38.80;;;;;;4972845;28;20141;-59
2022/03/12 11:01:53;;;;;;;11.13;6.40;;;9.60;38.60;;;;;;4974780;28;20031;-58
2022/03/12 11:04:24;;;;;;;14.13;7.15;;;9.60;38.80;;;;;;4974533;28;20031;-60
2022/03/12 11:06:55;;;;;;;12.38;7.22;;;9.60;38.60;;;;;;4973671;28;20129;-59
2022/03/12 11:09:38;;;;;;;14.75;6.80;;;9.70;38.80;;;;;;4973930;28;20035;-60
2022/03/12 11:12:30;;;;;;;12.60;7.00;;;9.90;38.90;;;;;;4974523;28;20472;-59
2022/03/12 11:15:05;;;;;;;18.83;7.17;;;10.40;38.30;;;;;;4974144;28;20104;-58
2022/03/12 11:17:51;;;;;;;20.88;7.55;;;10.30;37.80;;;;;;4974631;28;20128;-59
2022/03/12 11:20:27;;;;;;;13.73;7.18;;;10.40;38.00;;;;;;4974095;28;20511;-59
2022/03/12 11:23:06;;;;;;;14.60;6.90;;;10.40;37.80;;;;;;4974461;28;20034;-59
2022/03/12 11:25:36;;;;;;;13.68;7.20;;;10.30;37.70;;;;;;4973737;28;20083;-56
2022/03/12 11:28:18;;;;;;;14.40;7.53;;;10.50;38.10;;;;;;4973981;28;20629;-59
2022/03/12 11:30:44;;;;;;;13.37;7.10;;;10.80;37.80;;;;;;4973899;28;20053;-58
2022/03/12 11:33:10;;;;;;;20.95;7.32;;;10.80;37.30;;;;;;4973746;28;20353;-60
2022/03/12 11:35:37;;;;;;;12.05;7.40;;;10.90;37.60;;;;;;4973041;28;20059;-60
2022/03/12 11:38:19;;;;;;;12.73;7.32;;;11.00;38.00;;;;;;4973699;28;20035;-59
2022/03/12 11:40:48;;;;;;;14.15;7.72;;;11.10;37.30;;;;;;4973511;28;20046;-59
2022/03/12 11:43:27;;;;;;;19.90;7.07;;;10.80;37.40;;;;;;4974376;28;20065;-60
2022/03/12 11:45:55;;;;;;;14.80;7.28;;;10.80;37.30;;;;;;4973515;28;20018;-59
2022/03/12 11:48:21;;;;;;;21.75;7.97;;;10.90;37.60;;;;;;4973354;28;20043;-59
2022/03/12 11:50:47;;;;;;;13.73;6.95;;;11.20;37.40;;;;;;4974009;28;20041;-60
2022/03/12 11:53:17;;;;;;;14.30;7.50;;;11.30;36.80;;;;;;4973332;28;20031;-58
2022/03/12 11:55:47;;;;;;;13.90;6.88;;;11.50;36.30;;;;;;4972704;28;20507;-57
2022/03/12 11:58:13;;;;;;;15.75;7.20;;;11.70;35.80;;;;;;4973264;28;20185;-59
2022/03/12 12:00:39;;;;;;;15.43;7.43;;;12.00;36.50;;;;;;4973039;28;20137;-59
2022/03/12 12:03:06;;;;;;;13.88;7.28;;;12.50;35.70;;;;;;4971997;28;20027;-59
2022/03/12 12:05:32;;;;;;;19.38;7.70;;;12.90;34.40;;;;;;4972917;28;20097;-58
2022/03/12 12:07:58;;;;;;;15.90;7.82;;;13.30;33.90;;;;;;4973114;28;20337;-59
2022/03/12 12:10:30;;;;;;;13.10;6.90;;;14.10;33.10;;;;;;4972465;28;20097;-58
2022/03/12 12:12:58;;;;;;;14.33;7.83;;;14.90;32.20;;;;;;4970857;28;20281;-61
2022/03/12 12:15:36;;;;;;;14.88;6.88;;;14.80;31.70;;;;;;4971580;28;20098;-60
2022/03/12 12:18:03;;;;;;;12.98;7.47;;;14.80;31.60;;;;;;4972958;28;20047;-59
2022/03/12 12:20:29;;;;;;;13.75;6.80;;;15.10;31.60;;;;;;4965095;28;20024;-60
2022/03/12 12:23:00;;;;;;;10.18;6.93;;;15.80;30.60;;;;;;4969638;28;20113;-54
2022/03/12 12:25:29;;;;;;;15.55;6.50;;;15.50;31.20;;;;;;4971966;28;20499;-58
2022/03/12 12:27:55;;;;;;;14.98;7.63;;;15.40;31.80;;;;;;4972721;28;20042;-60
2022/03/12 12:30:38;;;;;;;15.38;8.05;;;14.70;32.00;;;;;;4973130;28;20031;-60
2022/03/12 12:33:29;;;;;;;17.75;7.18;;;14.30;32.70;;;;;;4972346;28;20050;-52
2022/03/12 12:36:10;;;;;;;18.77;7.43;;;14.30;33.20;;;;;;4968552;28;20062;-59
2022/03/12 12:38:37;;;;;;;15.98;7.50;;;14.90;32.50;;;;;;4968363;28;20022;-55
2022/03/12 12:41:03;;;;;;;13.13;7.95;;;14.30;32.30;;;;;;4970261;28;20467;-60
2022/03/12 12:43:39;;;;;;;12.38;7.00;;;14.80;32.90;;;;;;4970214;28;20026;-58
2022/03/12 12:46:09;;;;;;;13.80;7.95;;;15.40;31.80;;;;;;4976728;28;20026;-57